sensor_id;sensor_type;location;lat;lon;timestamp;temperature;humidity
6379;DHT22;3222;48.858;10.128;2022-12-07T00:00:55;3.00;99.90
6379;DHT22;3222;48.858;10.128;2022-12-07T00:03:29;2.90;99.90
6379;DHT22;3222;48.858;10.128;2022-12-07T00:05:57;2.90;99.90
6379;DHT22;3222;48.858;10.128;2022-12-07T00:08:23;2.90;99.90
6379;DHT22;3222;48.858;10.128;2022-12-07T00:10:48;2.80;99.90
6379;DHT22;3222;48.858;10.128;2022-12-07T00:13:14;2.80;99.90
6379;DHT22;3222;48.858;10.128;2022-12-07T00:15:40;2.80;99.90
6379;DHT22;3222;48.858;10.128;2022-12-07T00:18:05;2.80;99.90
6379;DHT22;3222;48.858;10.128;2022-12-07T00:20:31;2.80;99.90
6379;DHT22;3222;48.858;10.128;2022-12-07T00:22:58;2.80;99.90
6379;DHT22;3222;48.858;10.128;2022-12-07T00:25:24;2.80;99.90
6379;DHT22;3222;48.858;10.128;2022-12-07T00:27:51;2.90;99.90
6379;DHT22;3222;48.858;10.128;2022-12-07T00:30:17;2.80;99.90
6379;DHT22;3222;48.858;10.128;2022-12-07T00:32:43;2.90;99.90
6379;DHT22;3222;48.858;10.128;2022-12-07T00:35:08;2.80;99.90
6379;DHT22;3222;48.858;10.128;2022-12-07T00:37:34;2.90;99.90
6379;DHT22;3222;48.858;10.128;2022-12-07T00:40:00;2.90;99.90
6379;DHT22;3222;48.858;10.128;2022-12-07T00:42:25;2.90;99.90
6379;DHT22;3222;48.858;10.128;2022-12-07T00:44:51;2.90;99.90
6379;DHT22;3222;48.858;10.128;2022-12-07T00:47:16;2.80;99.90
6379;DHT22;3222;48.858;10.128;2022-12-07T00:49:42;2.80;99.90
6379;DHT22;3222;48.858;10.128;2022-12-07T00:52:08;2.80;99.90
6379;DHT22;3222;48.858;10.128;2022-12-07T00:54:33;2.80;99.90
6379;DHT22;3222;48.858;10.128;2022-12-07T00:56:59;2.80;99.90
6379;DHT22;3222;48.858;10.128;2022-12-07T00:59:25;2.80;99.90
6379;DHT22;3222;48.858;10.128;2022-12-07T01:01:50;2.80;99.90
6379;DHT22;3222;48.858;10.128;2022-12-07T01:04:16;2.80;99.90
6379;DHT22;3222;48.858;10.128;2022-12-07T01:06:42;2.80;99.90
6379;DHT22;3222;48.858;10.128;2022-12-07T01:09:07;2.90;99.90
6379;DHT22;3222;48.858;10.128;2022-12-07T01:11:33;2.90;99.90
6379;DHT22;3222;48.858;10.128;2022-12-07T01:13:59;2.90;99.90
6379;DHT22;3222;48.858;10.128;2022-12-07T01:16:28;2.80;99.90
6379;DHT22;3222;48.858;10.128;2022-12-07T01:18:55;2.80;99.90
6379;DHT22;3222;48.858;10.128;2022-12-07T01:21:30;2.80;99.90
6379;DHT22;3222;48.858;10.128;2022-12-07T01:23:58;2.80;99.90
6379;DHT22;3222;48.858;10.128;2022-12-07T01:26:24;2.80;99.90
6379;DHT22;3222;48.858;10.128;2022-12-07T01:28:51;2.90;99.90
6379;DHT22;3222;48.858;10.128;2022-12-07T01:31:19;3.00;99.90
6379;DHT22;3222;48.858;10.128;2022-12-07T01:33:48;3.00;99.90
6379;DHT22;3222;48.858;10.128;2022-12-07T01:36:31;3.00;99.90
6379;DHT22;3222;48.858;10.128;2022-12-07T01:38:59;2.90;99.90
6379;DHT22;3222;48.858;10.128;2022-12-07T01:41:27;3.00;99.90
6379;DHT22;3222;48.858;10.128;2022-12-07T01:44:21;3.00;99.90
6379;DHT22;3222;48.858;10.128;2022-12-07T01:46:50;2.90;99.90
6379;DHT22;3222;48.858;10.128;2022-12-07T01:51:46;2.80;99.90
6379;DHT22;3222;48.858;10.128;2022-12-07T01:54:13;2.80;99.90
6379;DHT22;3222;48.858;10.128;2022-12-07T01:56:42;2.70;99.90
6379;DHT22;3222;48.858;10.128;2022-12-07T01:59:09;2.70;99.90
6379;DHT22;3222;48.858;10.128;2022-12-07T02:01:35;2.70;99.90
6379;DHT22;3222;48.858;10.128;2022-12-07T02:04:01;2.70;99.90
6379;DHT22;3222;48.858;10.128;2022-12-07T02:06:27;2.70;99.90
6379;DHT22;3222;48.858;10.128;2022-12-07T02:08:53;2.80;99.90
6379;DHT22;3222;48.858;10.128;2022-12-07T02:11:20;2.80;99.90
6379;DHT22;3222;48.858;10.128;2022-12-07T02:13:46;2.80;99.90
6379;DHT22;3222;48.858;10.128;2022-12-07T02:19:23;2.70;99.90
6379;DHT22;3222;48.858;10.128;2022-12-07T02:27:36;2.80;99.90
6379;DHT22;3222;48.858;10.128;2022-12-07T02:38:26;2.90;99.90
6379;DHT22;3222;48.858;10.128;2022-12-07T02:41:47;2.80;99.90
6379;DHT22;3222;48.858;10.128;2022-12-07T02:44:17;2.80;99.90
6379;DHT22;3222;48.858;10.128;2022-12-07T02:46:56;2.80;99.90
6379;DHT22;3222;48.858;10.128;2022-12-07T02:49:24;2.80;99.90
6379;DHT22;3222;48.858;10.128;2022-12-07T02:51:52;2.80;99.90
6379;DHT22;3222;48.858;10.128;2022-12-07T02:54:19;2.80;99.90
6379;DHT22;3222;48.858;10.128;2022-12-07T02:59:46;2.80;99.90
6379;DHT22;3222;48.858;10.128;2022-12-07T03:03:09;2.80;99.90
6379;DHT22;3222;48.858;10.128;2022-12-07T03:05:51;2.80;99.90
6379;DHT22;3222;48.858;10.128;2022-12-07T03:08:38;2.70;99.90
6379;DHT22;3222;48.858;10.128;2022-12-07T03:14:25;2.80;99.90
6379;DHT22;3222;48.858;10.128;2022-12-07T03:17:00;2.80;99.90
6379;DHT22;3222;48.858;10.128;2022-12-07T03:19:29;2.70;99.90
6379;DHT22;3222;48.858;10.128;2022-12-07T03:22:01;2.70;99.90
6379;DHT22;3222;48.858;10.128;2022-12-07T03:24:32;2.70;99.90
6379;DHT22;3222;48.858;10.128;2022-12-07T03:27:19;2.70;99.90
6379;DHT22;3222;48.858;10.128;2022-12-07T03:29:55;2.80;99.90
6379;DHT22;3222;48.858;10.128;2022-12-07T03:32:35;2.80;99.90
6379;DHT22;3222;48.858;10.128;2022-12-07T03:35:45;2.70;99.90
6379;DHT22;3222;48.858;10.128;2022-12-07T03:38:26;2.60;99.90
6379;DHT22;3222;48.858;10.128;2022-12-07T03:41:06;2.60;99.90
6379;DHT22;3222;48.858;10.128;2022-12-07T03:43:33;2.70;99.90
6379;DHT22;3222;48.858;10.128;2022-12-07T03:46:32;2.60;99.90
6379;DHT22;3222;48.858;10.128;2022-12-07T03:54:27;2.60;99.90
6379;DHT22;3222;48.858;10.128;2022-12-07T03:56:54;2.60;99.90
6379;DHT22;3222;48.858;10.128;2022-12-07T03:59:22;2.60;99.90
6379;DHT22;3222;48.858;10.128;2022-12-07T04:01:56;2.50;99.90
6379;DHT22;3222;48.858;10.128;2022-12-07T04:04:23;2.60;99.90
6379;DHT22;3222;48.858;10.128;2022-12-07T04:06:50;2.60;99.90
6379;DHT22;3222;48.858;10.128;2022-12-07T04:09:16;2.70;99.90
6379;DHT22;3222;48.858;10.128;2022-12-07T04:11:42;2.70;99.90
6379;DHT22;3222;48.858;10.128;2022-12-07T04:14:08;2.60;99.90
6379;DHT22;3222;48.858;10.128;2022-12-07T04:16:51;2.70;99.90
6379;DHT22;3222;48.858;10.128;2022-12-07T04:19:23;2.80;99.90
6379;DHT22;3222;48.858;10.128;2022-12-07T04:21:49;2.70;99.90
6379;DHT22;3222;48.858;10.128;2022-12-07T04:24:15;2.80;99.90
6379;DHT22;3222;48.858;10.128;2022-12-07T04:26:41;2.70;99.90
6379;DHT22;3222;48.858;10.128;2022-12-07T04:29:08;2.70;99.90
6379;DHT22;3222;48.858;10.128;2022-12-07T04:31:35;2.70;99.90
6379;DHT22;3222;48.858;10.128;2022-12-07T04:34:01;2.70;99.90
6379;DHT22;3222;48.858;10.128;2022-12-07T04:36:27;2.70;99.90
6379;DHT22;3222;48.858;10.128;2022-12-07T04:38:53;2.70;99.90
6379;DHT22;3222;48.858;10.128;2022-12-07T04:41:20;2.80;99.90
6379;DHT22;3222;48.858;10.128;2022-12-07T04:43:56;2.70;99.90
6379;DHT22;3222;48.858;10.128;2022-12-07T04:46:26;2.90;99.90
6379;DHT22;3222;48.858;10.128;2022-12-07T04:48:52;2.90;99.90
6379;DHT22;3222;48.858;10.128;2022-12-07T04:51:21;3.10;99.90
6379;DHT22;3222;48.858;10.128;2022-12-07T04:53:47;3.00;99.90
6379;DHT22;3222;48.858;10.128;2022-12-07T04:56:14;3.10;99.90
6379;DHT22;3222;48.858;10.128;2022-12-07T04:58:39;3.10;99.90
6379;DHT22;3222;48.858;10.128;2022-12-07T05:01:05;3.00;99.90
6379;DHT22;3222;48.858;10.128;2022-12-07T05:03:31;3.10;99.90
6379;DHT22;3222;48.858;10.128;2022-12-07T05:05:56;3.00;99.90
6379;DHT22;3222;48.858;10.128;2022-12-07T05:08:22;2.90;99.90
6379;DHT22;3222;48.858;10.128;2022-12-07T05:10:49;3.00;99.90
6379;DHT22;3222;48.858;10.128;2022-12-07T05:13:14;3.00;99.90
6379;DHT22;3222;48.858;10.128;2022-12-07T05:15:40;3.00;99.90
6379;DHT22;3222;48.858;10.128;2022-12-07T05:18:08;2.80;99.90
6379;DHT22;3222;48.858;10.128;2022-12-07T05:20:34;2.70;99.90
6379;DHT22;3222;48.858;10.128;2022-12-07T05:23:00;2.70;99.90
6379;DHT22;3222;48.858;10.128;2022-12-07T05:25:25;2.60;99.90
6379;DHT22;3222;48.858;10.128;2022-12-07T05:27:51;2.60;99.90
6379;DHT22;3222;48.858;10.128;2022-12-07T05:30:17;2.50;99.90
6379;DHT22;3222;48.858;10.128;2022-12-07T05:32:42;2.50;99.90
6379;DHT22;3222;48.858;10.128;2022-12-07T05:35:09;2.40;99.90
6379;DHT22;3222;48.858;10.128;2022-12-07T05:37:35;2.40;99.90
6379;DHT22;3222;48.858;10.128;2022-12-07T05:40:00;2.40;99.90
6379;DHT22;3222;48.858;10.128;2022-12-07T05:42:26;2.40;99.90
6379;DHT22;3222;48.858;10.128;2022-12-07T05:44:52;2.40;99.90
6379;DHT22;3222;48.858;10.128;2022-12-07T05:47:17;2.40;99.90
6379;DHT22;3222;48.858;10.128;2022-12-07T05:49:43;2.40;99.90
6379;DHT22;3222;48.858;10.128;2022-12-07T05:52:09;2.40;99.90
6379;DHT22;3222;48.858;10.128;2022-12-07T05:54:34;2.30;99.90
6379;DHT22;3222;48.858;10.128;2022-12-07T05:57:00;2.40;99.90
6379;DHT22;3222;48.858;10.128;2022-12-07T05:59:25;2.30;99.90
6379;DHT22;3222;48.858;10.128;2022-12-07T06:01:56;2.30;99.90
6379;DHT22;3222;48.858;10.128;2022-12-07T06:04:23;2.30;99.90
6379;DHT22;3222;48.858;10.128;2022-12-07T06:06:50;2.30;99.90
6379;DHT22;3222;48.858;10.128;2022-12-07T06:09:17;2.30;99.90
6379;DHT22;3222;48.858;10.128;2022-12-07T06:11:44;2.30;99.90
6379;DHT22;3222;48.858;10.128;2022-12-07T06:14:28;2.30;99.90
6379;DHT22;3222;48.858;10.128;2022-12-07T06:16:54;2.30;99.90
6379;DHT22;3222;48.858;10.128;2022-12-07T06:19:19;2.40;99.90
6379;DHT22;3222;48.858;10.128;2022-12-07T06:21:45;2.40;99.90
6379;DHT22;3222;48.858;10.128;2022-12-07T06:24:12;2.40;99.90
6379;DHT22;3222;48.858;10.128;2022-12-07T06:26:38;2.40;99.90
6379;DHT22;3222;48.858;10.128;2022-12-07T06:29:04;2.60;99.90
6379;DHT22;3222;48.858;10.128;2022-12-07T06:31:29;2.50;99.90
6379;DHT22;3222;48.858;10.128;2022-12-07T06:34:06;2.60;99.90
6379;DHT22;3222;48.858;10.128;2022-12-07T06:36:32;2.50;99.90
6379;DHT22;3222;48.858;10.128;2022-12-07T06:38:58;2.50;99.90
6379;DHT22;3222;48.858;10.128;2022-12-07T06:41:24;2.50;99.90
6379;DHT22;3222;48.858;10.128;2022-12-07T06:43:50;2.50;99.90
6379;DHT22;3222;48.858;10.128;2022-12-07T06:46:16;2.50;99.90
6379;DHT22;3222;48.858;10.128;2022-12-07T06:48:42;2.70;99.90
6379;DHT22;3222;48.858;10.128;2022-12-07T06:51:09;2.60;99.90
6379;DHT22;3222;48.858;10.128;2022-12-07T06:53:35;2.60;99.90
6379;DHT22;3222;48.858;10.128;2022-12-07T06:56:01;2.60;99.90
6379;DHT22;3222;48.858;10.128;2022-12-07T06:58:27;2.60;99.90
6379;DHT22;3222;48.858;10.128;2022-12-07T07:00:53;2.60;99.90
6379;DHT22;3222;48.858;10.128;2022-12-07T07:03:19;2.60;99.90
6379;DHT22;3222;48.858;10.128;2022-12-07T07:05:45;2.60;99.90
6379;DHT22;3222;48.858;10.128;2022-12-07T07:08:11;2.60;99.90
6379;DHT22;3222;48.858;10.128;2022-12-07T07:10:37;2.80;99.90
6379;DHT22;3222;48.858;10.128;2022-12-07T07:13:04;2.70;99.90
6379;DHT22;3222;48.858;10.128;2022-12-07T07:15:30;2.60;99.90
6379;DHT22;3222;48.858;10.128;2022-12-07T07:17:56;2.60;99.90
6379;DHT22;3222;48.858;10.128;2022-12-07T07:20:22;2.80;99.90
6379;DHT22;3222;48.858;10.128;2022-12-07T07:22:48;2.70;99.90
6379;DHT22;3222;48.858;10.128;2022-12-07T07:25:14;2.70;99.90
6379;DHT22;3222;48.858;10.128;2022-12-07T07:27:40;2.70;99.90
6379;DHT22;3222;48.858;10.128;2022-12-07T07:30:06;2.60;99.90
6379;DHT22;3222;48.858;10.128;2022-12-07T07:32:32;2.50;99.90
6379;DHT22;3222;48.858;10.128;2022-12-07T07:34:58;2.60;99.90
6379;DHT22;3222;48.858;10.128;2022-12-07T07:37:23;2.60;99.90
6379;DHT22;3222;48.858;10.128;2022-12-07T07:39:49;2.60;99.90
6379;DHT22;3222;48.858;10.128;2022-12-07T07:42:15;2.60;99.90
6379;DHT22;3222;48.858;10.128;2022-12-07T07:44:42;2.60;99.90
6379;DHT22;3222;48.858;10.128;2022-12-07T07:47:08;2.70;99.90
6379;DHT22;3222;48.858;10.128;2022-12-07T07:49:34;2.60;99.90
6379;DHT22;3222;48.858;10.128;2022-12-07T07:51:59;2.80;99.90
6379;DHT22;3222;48.858;10.128;2022-12-07T07:54:25;2.70;99.90
6379;DHT22;3222;48.858;10.128;2022-12-07T07:56:52;2.60;99.90
6379;DHT22;3222;48.858;10.128;2022-12-07T07:59:18;2.80;99.90
6379;DHT22;3222;48.858;10.128;2022-12-07T08:01:44;2.80;99.90
6379;DHT22;3222;48.858;10.128;2022-12-07T08:04:09;2.70;99.90
6379;DHT22;3222;48.858;10.128;2022-12-07T08:06:35;2.70;99.90
6379;DHT22;3222;48.858;10.128;2022-12-07T08:09:01;2.60;99.90
6379;DHT22;3222;48.858;10.128;2022-12-07T08:11:27;2.60;99.90
6379;DHT22;3222;48.858;10.128;2022-12-07T08:13:52;2.70;99.90
6379;DHT22;3222;48.858;10.128;2022-12-07T08:16:18;2.70;99.90
6379;DHT22;3222;48.858;10.128;2022-12-07T08:18:44;2.60;99.90
6379;DHT22;3222;48.858;10.128;2022-12-07T08:21:12;2.60;99.90
6379;DHT22;3222;48.858;10.128;2022-12-07T08:23:38;2.60;99.90
6379;DHT22;3222;48.858;10.128;2022-12-07T08:26:10;2.60;99.90
6379;DHT22;3222;48.858;10.128;2022-12-07T08:28:36;2.60;99.90
6379;DHT22;3222;48.858;10.128;2022-12-07T08:31:04;2.80;99.90
6379;DHT22;3222;48.858;10.128;2022-12-07T08:33:30;3.00;99.90
6379;DHT22;3222;48.858;10.128;2022-12-07T08:36:04;2.90;99.90
6379;DHT22;3222;48.858;10.128;2022-12-07T08:38:31;2.80;99.90
6379;DHT22;3222;48.858;10.128;2022-12-07T08:40:58;2.70;99.90
6379;DHT22;3222;48.858;10.128;2022-12-07T08:43:24;2.60;99.90
6379;DHT22;3222;48.858;10.128;2022-12-07T08:46:02;2.60;99.90
6379;DHT22;3222;48.858;10.128;2022-12-07T08:48:30;2.70;99.90
6379;DHT22;3222;48.858;10.128;2022-12-07T08:50:56;2.70;99.90
6379;DHT22;3222;48.858;10.128;2022-12-07T08:53:22;2.50;99.90
6379;DHT22;3222;48.858;10.128;2022-12-07T08:55:48;2.60;99.90
6379;DHT22;3222;48.858;10.128;2022-12-07T08:58:14;2.70;99.90
6379;DHT22;3222;48.858;10.128;2022-12-07T09:00:39;2.70;99.90
6379;DHT22;3222;48.858;10.128;2022-12-07T09:03:05;2.80;99.90
6379;DHT22;3222;48.858;10.128;2022-12-07T09:05:32;2.70;99.90
6379;DHT22;3222;48.858;10.128;2022-12-07T09:08:00;2.80;99.90
6379;DHT22;3222;48.858;10.128;2022-12-07T09:10:27;2.90;99.90
6379;DHT22;3222;48.858;10.128;2022-12-07T09:12:52;2.80;99.90
6379;DHT22;3222;48.858;10.128;2022-12-07T09:15:18;2.70;99.90
6379;DHT22;3222;48.858;10.128;2022-12-07T09:17:44;2.60;99.90
6379;DHT22;3222;48.858;10.128;2022-12-07T09:20:10;2.60;99.90
6379;DHT22;3222;48.858;10.128;2022-12-07T09:22:35;2.70;99.90
6379;DHT22;3222;48.858;10.128;2022-12-07T09:25:01;2.60;99.90
6379;DHT22;3222;48.858;10.128;2022-12-07T09:27:27;2.80;99.90
6379;DHT22;3222;48.858;10.128;2022-12-07T09:29:53;2.70;99.90
6379;DHT22;3222;48.858;10.128;2022-12-07T09:32:19;2.80;99.90
6379;DHT22;3222;48.858;10.128;2022-12-07T09:34:45;2.80;99.90
6379;DHT22;3222;48.858;10.128;2022-12-07T09:37:10;2.80;99.90
6379;DHT22;3222;48.858;10.128;2022-12-07T09:39:40;2.70;99.90
6379;DHT22;3222;48.858;10.128;2022-12-07T09:42:06;2.70;99.90
6379;DHT22;3222;48.858;10.128;2022-12-07T09:44:34;2.70;99.90
6379;DHT22;3222;48.858;10.128;2022-12-07T09:47:00;2.70;99.90
6379;DHT22;3222;48.858;10.128;2022-12-07T09:49:32;2.80;99.90
6379;DHT22;3222;48.858;10.128;2022-12-07T09:52:25;2.90;99.90
6379;DHT22;3222;48.858;10.128;2022-12-07T09:54:52;2.90;99.90
6379;DHT22;3222;48.858;10.128;2022-12-07T09:57:25;2.80;99.90
6379;DHT22;3222;48.858;10.128;2022-12-07T10:00:04;2.80;99.90
6379;DHT22;3222;48.858;10.128;2022-12-07T10:02:38;2.80;99.90
6379;DHT22;3222;48.858;10.128;2022-12-07T10:05:15;2.90;99.90
6379;DHT22;3222;48.858;10.128;2022-12-07T10:07:41;2.90;99.90
6379;DHT22;3222;48.858;10.128;2022-12-07T10:10:25;2.80;99.90
6379;DHT22;3222;48.858;10.128;2022-12-07T10:13:06;2.90;99.90
6379;DHT22;3222;48.858;10.128;2022-12-07T10:15:53;2.80;99.90
6379;DHT22;3222;48.858;10.128;2022-12-07T10:18:32;2.80;99.90
6379;DHT22;3222;48.858;10.128;2022-12-07T10:23:26;2.80;99.90
6379;DHT22;3222;48.858;10.128;2022-12-07T10:25:52;2.90;99.90
6379;DHT22;3222;48.858;10.128;2022-12-07T10:28:21;2.90;99.90
6379;DHT22;3222;48.858;10.128;2022-12-07T10:30:59;2.90;99.90
6379;DHT22;3222;48.858;10.128;2022-12-07T10:35:59;2.90;99.90
6379;DHT22;3222;48.858;10.128;2022-12-07T10:38:27;3.00;99.90
6379;DHT22;3222;48.858;10.128;2022-12-07T10:41:04;3.00;99.90
6379;DHT22;3222;48.858;10.128;2022-12-07T10:43:30;3.00;99.90
6379;DHT22;3222;48.858;10.128;2022-12-07T10:54:34;3.00;99.90
6379;DHT22;3222;48.858;10.128;2022-12-07T10:59:53;2.90;99.90
6379;DHT22;3222;48.858;10.128;2022-12-07T11:05:30;2.80;99.90
6379;DHT22;3222;48.858;10.128;2022-12-07T11:10:44;3.00;99.90
6379;DHT22;3222;48.858;10.128;2022-12-07T11:13:29;3.10;99.90
6379;DHT22;3222;48.858;10.128;2022-12-07T11:16:11;3.10;99.90
6379;DHT22;3222;48.858;10.128;2022-12-07T11:21:19;3.00;99.90
6379;DHT22;3222;48.858;10.128;2022-12-07T11:24:15;3.00;99.90
6379;DHT22;3222;48.858;10.128;2022-12-07T11:37:12;3.00;99.90
6379;DHT22;3222;48.858;10.128;2022-12-07T11:42:25;3.10;99.90
6379;DHT22;3222;48.858;10.128;2022-12-07T11:45:00;3.10;99.90
6379;DHT22;3222;48.858;10.128;2022-12-07T11:47:48;3.10;99.90
6379;DHT22;3222;48.858;10.128;2022-12-07T11:58:35;3.10;99.90
6379;DHT22;3222;48.858;10.128;2022-12-07T12:03:46;3.10;99.90
6379;DHT22;3222;48.858;10.128;2022-12-07T12:06:13;3.10;99.90
6379;DHT22;3222;48.858;10.128;2022-12-07T12:19:00;3.20;99.90
6379;DHT22;3222;48.858;10.128;2022-12-07T12:21:29;3.10;99.90
6379;DHT22;3222;48.858;10.128;2022-12-07T12:26:25;3.00;99.90
6379;DHT22;3222;48.858;10.128;2022-12-07T12:33:58;3.00;99.90
6379;DHT22;3222;48.858;10.128;2022-12-07T12:36:43;3.10;99.90
6379;DHT22;3222;48.858;10.128;2022-12-07T12:39:18;3.30;99.90
6379;DHT22;3222;48.858;10.128;2022-12-07T13:04:59;3.10;99.90
6379;DHT22;3222;48.858;10.128;2022-12-07T13:15:50;3.10;99.90
6379;DHT22;3222;48.858;10.128;2022-12-07T13:28:38;3.00;99.90
6379;DHT22;3222;48.858;10.128;2022-12-07T13:33:53;3.10;99.90
6379;DHT22;3222;48.858;10.128;2022-12-07T13:36:24;3.10;99.90
6379;DHT22;3222;48.858;10.128;2022-12-07T13:38:58;3.00;99.90
6379;DHT22;3222;48.858;10.128;2022-12-07T13:41:26;3.10;99.90
6379;DHT22;3222;48.858;10.128;2022-12-07T13:49:28;3.00;99.90
6379;DHT22;3222;48.858;10.128;2022-12-07T13:52:03;3.00;99.90
6379;DHT22;3222;48.858;10.128;2022-12-07T13:54:32;3.10;99.90
6379;DHT22;3222;48.858;10.128;2022-12-07T13:56:58;3.10;99.90
6379;DHT22;3222;48.858;10.128;2022-12-07T13:59:25;3.00;99.90
6379;DHT22;3222;48.858;10.128;2022-12-07T14:01:52;3.00;99.90
6379;DHT22;3222;48.858;10.128;2022-12-07T14:04:29;3.10;99.90
6379;DHT22;3222;48.858;10.128;2022-12-07T14:06:55;3.10;99.90
6379;DHT22;3222;48.858;10.128;2022-12-07T14:09:23;3.10;99.90
6379;DHT22;3222;48.858;10.128;2022-12-07T14:11:52;3.10;99.90
6379;DHT22;3222;48.858;10.128;2022-12-07T14:14:25;3.00;99.90
6379;DHT22;3222;48.858;10.128;2022-12-07T14:17:21;3.10;99.90
6379;DHT22;3222;48.858;10.128;2022-12-07T14:19:58;3.10;99.90
6379;DHT22;3222;48.858;10.128;2022-12-07T14:22:33;3.10;99.90
6379;DHT22;3222;48.858;10.128;2022-12-07T14:27:31;2.90;99.90
6379;DHT22;3222;48.858;10.128;2022-12-07T14:30:00;2.90;99.90
6379;DHT22;3222;48.858;10.128;2022-12-07T14:32:28;2.90;99.90
6379;DHT22;3222;48.858;10.128;2022-12-07T14:35:15;3.00;99.90
6379;DHT22;3222;48.858;10.128;2022-12-07T14:37:43;3.10;99.90
6379;DHT22;3222;48.858;10.128;2022-12-07T14:40:13;3.10;99.90
6379;DHT22;3222;48.858;10.128;2022-12-07T14:42:39;3.00;99.90
6379;DHT22;3222;48.858;10.128;2022-12-07T14:45:10;3.00;99.90
6379;DHT22;3222;48.858;10.128;2022-12-07T14:47:38;3.00;99.90
6379;DHT22;3222;48.858;10.128;2022-12-07T14:50:04;3.10;99.90
6379;DHT22;3222;48.858;10.128;2022-12-07T14:52:30;3.00;99.90
6379;DHT22;3222;48.858;10.128;2022-12-07T14:54:55;2.90;99.90
6379;DHT22;3222;48.858;10.128;2022-12-07T14:57:22;3.00;99.90
6379;DHT22;3222;48.858;10.128;2022-12-07T14:59:48;2.90;99.90
6379;DHT22;3222;48.858;10.128;2022-12-07T15:02:14;2.90;99.90
6379;DHT22;3222;48.858;10.128;2022-12-07T15:04:40;2.90;99.90
6379;DHT22;3222;48.858;10.128;2022-12-07T15:07:13;2.90;99.90
6379;DHT22;3222;48.858;10.128;2022-12-07T15:09:40;3.00;99.90
6379;DHT22;3222;48.858;10.128;2022-12-07T15:12:05;2.90;99.90
6379;DHT22;3222;48.858;10.128;2022-12-07T15:14:31;3.00;99.90
6379;DHT22;3222;48.858;10.128;2022-12-07T15:16:57;2.90;99.90
6379;DHT22;3222;48.858;10.128;2022-12-07T15:19:24;2.90;99.90
6379;DHT22;3222;48.858;10.128;2022-12-07T15:21:53;2.90;99.90
6379;DHT22;3222;48.858;10.128;2022-12-07T15:24:19;2.90;99.90
6379;DHT22;3222;48.858;10.128;2022-12-07T15:26:46;2.90;99.90
6379;DHT22;3222;48.858;10.128;2022-12-07T15:29:11;3.00;99.90
6379;DHT22;3222;48.858;10.128;2022-12-07T15:31:37;2.90;99.90
6379;DHT22;3222;48.858;10.128;2022-12-07T15:34:03;2.90;99.90
6379;DHT22;3222;48.858;10.128;2022-12-07T15:36:32;2.90;99.90
6379;DHT22;3222;48.858;10.128;2022-12-07T15:38:58;2.80;99.90
6379;DHT22;3222;48.858;10.128;2022-12-07T15:41:24;2.90;99.90
6379;DHT22;3222;48.858;10.128;2022-12-07T15:43:50;2.80;99.90
6379;DHT22;3222;48.858;10.128;2022-12-07T15:46:36;2.90;99.90
6379;DHT22;3222;48.858;10.128;2022-12-07T15:49:04;2.90;99.90
6379;DHT22;3222;48.858;10.128;2022-12-07T15:51:30;2.90;99.90
6379;DHT22;3222;48.858;10.128;2022-12-07T15:53:57;3.00;99.90
6379;DHT22;3222;48.858;10.128;2022-12-07T15:56:23;3.00;99.90
6379;DHT22;3222;48.858;10.128;2022-12-07T15:58:49;3.00;99.90
6379;DHT22;3222;48.858;10.128;2022-12-07T16:01:18;2.90;99.90
6379;DHT22;3222;48.858;10.128;2022-12-07T16:03:45;2.80;99.90
6379;DHT22;3222;48.858;10.128;2022-12-07T16:06:11;2.90;99.90
6379;DHT22;3222;48.858;10.128;2022-12-07T16:08:44;2.90;99.90
6379;DHT22;3222;48.858;10.128;2022-12-07T16:11:10;2.80;99.90
6379;DHT22;3222;48.858;10.128;2022-12-07T16:13:36;2.90;99.90
6379;DHT22;3222;48.858;10.128;2022-12-07T16:16:09;2.90;99.90
6379;DHT22;3222;48.858;10.128;2022-12-07T16:18:35;2.90;99.90
6379;DHT22;3222;48.858;10.128;2022-12-07T16:21:01;2.90;99.90
6379;DHT22;3222;48.858;10.128;2022-12-07T16:23:27;3.00;99.90
6379;DHT22;3222;48.858;10.128;2022-12-07T16:25:53;2.90;99.90
6379;DHT22;3222;48.858;10.128;2022-12-07T16:28:18;2.90;99.90
6379;DHT22;3222;48.858;10.128;2022-12-07T16:30:44;2.90;99.90
6379;DHT22;3222;48.858;10.128;2022-12-07T16:33:10;2.90;99.90
6379;DHT22;3222;48.858;10.128;2022-12-07T16:35:39;2.90;99.90
6379;DHT22;3222;48.858;10.128;2022-12-07T16:38:06;2.90;99.90
6379;DHT22;3222;48.858;10.128;2022-12-07T16:40:32;2.90;99.90
6379;DHT22;3222;48.858;10.128;2022-12-07T16:42:58;2.90;99.90
6379;DHT22;3222;48.858;10.128;2022-12-07T16:45:23;2.80;99.90
6379;DHT22;3222;48.858;10.128;2022-12-07T16:47:49;2.90;99.90
6379;DHT22;3222;48.858;10.128;2022-12-07T16:50:15;2.80;99.90
6379;DHT22;3222;48.858;10.128;2022-12-07T16:52:41;2.80;99.90
6379;DHT22;3222;48.858;10.128;2022-12-07T16:55:07;2.80;99.90
6379;DHT22;3222;48.858;10.128;2022-12-07T16:57:32;2.90;99.90
6379;DHT22;3222;48.858;10.128;2022-12-07T16:59:58;2.90;99.90
6379;DHT22;3222;48.858;10.128;2022-12-07T17:02:24;2.90;99.90
6379;DHT22;3222;48.858;10.128;2022-12-07T17:04:50;2.80;99.90
6379;DHT22;3222;48.858;10.128;2022-12-07T17:07:16;2.80;99.90
6379;DHT22;3222;48.858;10.128;2022-12-07T17:09:42;2.80;99.90
6379;DHT22;3222;48.858;10.128;2022-12-07T17:12:08;2.80;99.90
6379;DHT22;3222;48.858;10.128;2022-12-07T17:14:33;2.80;99.90
6379;DHT22;3222;48.858;10.128;2022-12-07T17:17:17;2.80;99.90
6379;DHT22;3222;48.858;10.128;2022-12-07T17:19:43;3.00;99.90
6379;DHT22;3222;48.858;10.128;2022-12-07T17:22:09;2.90;99.90
6379;DHT22;3222;48.858;10.128;2022-12-07T17:24:38;2.90;99.90
6379;DHT22;3222;48.858;10.128;2022-12-07T17:27:04;3.00;99.90
6379;DHT22;3222;48.858;10.128;2022-12-07T17:29:29;3.00;99.90
6379;DHT22;3222;48.858;10.128;2022-12-07T17:31:55;3.10;99.90
6379;DHT22;3222;48.858;10.128;2022-12-07T17:34:20;3.00;99.90
6379;DHT22;3222;48.858;10.128;2022-12-07T17:36:46;3.00;99.90
6379;DHT22;3222;48.858;10.128;2022-12-07T17:39:15;3.10;99.90
6379;DHT22;3222;48.858;10.128;2022-12-07T17:41:41;3.10;99.90
6379;DHT22;3222;48.858;10.128;2022-12-07T17:44:27;3.10;99.90
6379;DHT22;3222;48.858;10.128;2022-12-07T17:46:53;3.10;99.90
6379;DHT22;3222;48.858;10.128;2022-12-07T17:49:20;3.10;99.90
6379;DHT22;3222;48.858;10.128;2022-12-07T17:51:46;3.10;99.90
6379;DHT22;3222;48.858;10.128;2022-12-07T17:54:30;3.20;99.90
6379;DHT22;3222;48.858;10.128;2022-12-07T17:56:56;3.20;99.90
6379;DHT22;3222;48.858;10.128;2022-12-07T17:59:23;3.10;99.90
6379;DHT22;3222;48.858;10.128;2022-12-07T18:01:49;3.00;99.90
6379;DHT22;3222;48.858;10.128;2022-12-07T18:04:14;2.90;99.90
6379;DHT22;3222;48.858;10.128;2022-12-07T18:06:41;2.80;99.90
6379;DHT22;3222;48.858;10.128;2022-12-07T18:09:07;2.90;99.90
6379;DHT22;3222;48.858;10.128;2022-12-07T18:11:33;2.80;99.90
6379;DHT22;3222;48.858;10.128;2022-12-07T18:13:59;2.90;99.90
6379;DHT22;3222;48.858;10.128;2022-12-07T18:16:27;2.90;99.90
6379;DHT22;3222;48.858;10.128;2022-12-07T18:18:54;3.00;99.90
6379;DHT22;3222;48.858;10.128;2022-12-07T18:21:22;3.00;99.90
6379;DHT22;3222;48.858;10.128;2022-12-07T18:23:51;3.00;99.90
6379;DHT22;3222;48.858;10.128;2022-12-07T18:26:18;3.00;99.90
6379;DHT22;3222;48.858;10.128;2022-12-07T18:28:44;2.90;99.90
6379;DHT22;3222;48.858;10.128;2022-12-07T18:31:10;3.00;99.90
6379;DHT22;3222;48.858;10.128;2022-12-07T18:33:38;2.90;99.90
6379;DHT22;3222;48.858;10.128;2022-12-07T18:36:04;2.90;99.90
6379;DHT22;3222;48.858;10.128;2022-12-07T18:38:31;2.90;99.90
6379;DHT22;3222;48.858;10.128;2022-12-07T18:40:57;2.90;99.90
6379;DHT22;3222;48.858;10.128;2022-12-07T18:43:23;2.90;99.90